BADGR41 KNLC-KNUQ
Flight info
| Callsign | BADGR41 |
|---|---|
| Flight time | 0h 14m |
| Altitude | 13500 |
| Route | KNLC CARRL KLIDE AGAPE RIROC ORZOS JULUD EBIYI RW32R |
| Aircraft | F22/L-ICAO/C |
Departure
| Time | 2026-04-19 20:13 |
|---|---|
| Airport | Lemoore Naval Air Station (Reeves Field) Airport (KNLC) |
Arrival
| Time | 2026-04-19 20:27 |
|---|---|
| Airport | Moffett Federal Airfield (KNUQ) |
| Time | Latitude | Longitude | Altitude | Speed | Heading |
|---|---|---|---|---|---|
| 2026-04-19 20:09 | 36.32705 | -119.94542 | 236 ft | 0 kts | 312° |
| 2026-04-19 20:11 | 36.32710 | -119.94548 | 238 ft | 4 kts | 312° |
| 2026-04-19 20:11 | 36.32755 | -119.94471 | 237 ft | 18 kts | 61° |
| 2026-04-19 20:11 | 36.32879 | -119.94437 | 237 ft | 21 kts | 6° |
| 2026-04-19 20:11 | 36.33010 | -119.94384 | 236 ft | 20 kts | 351° |
| 2026-04-19 20:12 | 36.33150 | -119.94458 | 235 ft | 24 kts | 336° |
| 2026-04-19 20:12 | 36.33314 | -119.94547 | 238 ft | 27 kts | 341° |
| 2026-04-19 20:12 | 36.33509 | -119.94532 | 233 ft | 30 kts | 9° |
| 2026-04-19 20:12 | 36.33799 | -119.94633 | 234 ft | 116 kts | 336° |
| 2026-04-19 20:13 | 36.35581 | -119.95617 | 623 ft | 463 kts | 336° |
| 2026-04-19 20:13 | 36.36115 | -119.99591 | 4929 ft | 600 kts | 258° |
| 2026-04-19 20:13 | 36.36814 | -120.04939 | 6197 ft | 670 kts | 295° |
| 2026-04-19 20:13 | 36.38838 | -120.10227 | 6769 ft | 687 kts | 272° |
| 2026-04-19 20:14 | 36.38058 | -120.15842 | 9187 ft | 652 kts | 252° |
| 2026-04-19 20:14 | 36.36726 | -120.21226 | 10555 ft | 655 kts | 251° |
| 2026-04-19 20:14 | 36.35367 | -120.26664 | 11374 ft | 664 kts | 251° |
| 2026-04-19 20:14 | 36.33957 | -120.32109 | 12400 ft | 652 kts | 248° |
| 2026-04-19 20:15 | 36.32940 | -120.35539 | 12875 ft | 628 kts | 246° |
| 2026-04-19 20:15 | 36.30635 | -120.42106 | 13211 ft | 619 kts | 240° |
| 2026-04-19 20:15 | 36.29248 | -120.47150 | 13290 ft | 625 kts | 258° |
| 2026-04-19 20:15 | 36.29065 | -120.52518 | 14083 ft | 622 kts | 266° |
| 2026-04-19 20:16 | 36.29833 | -120.57801 | 14059 ft | 638 kts | 297° |
| 2026-04-19 20:16 | 36.33157 | -120.61417 | 14033 ft | 652 kts | 331° |
| 2026-04-19 20:16 | 36.35831 | -120.63120 | 14038 ft | 651 kts | 327° |
| 2026-04-19 20:16 | 36.40268 | -120.68289 | 13905 ft | 725 kts | 306° |
| 2026-04-19 20:17 | 36.42502 | -120.71883 | 13754 ft | 848 kts | 305° |
| 2026-04-19 20:17 | 36.46478 | -120.77971 | 13672 ft | 955 kts | 310° |
| 2026-04-19 20:17 | 36.51301 | -120.84023 | 13326 ft | 1009 kts | 317° |
| 2026-04-19 20:17 | 36.56645 | -120.89873 | 13014 ft | 1028 kts | 317° |
| 2026-04-19 20:18 | 36.61748 | -120.96103 | 13256 ft | 1029 kts | 310° |
| 2026-04-19 20:18 | 36.66418 | -121.02889 | 13266 ft | 1035 kts | 309° |
| 2026-04-19 20:18 | 36.71071 | -121.09753 | 13224 ft | 1037 kts | 309° |
| 2026-04-19 20:18 | 36.75713 | -121.16639 | 13309 ft | 1037 kts | 309° |
| 2026-04-19 20:19 | 36.80320 | -121.23440 | 13388 ft | 1039 kts | 309° |
| 2026-04-19 20:19 | 36.85045 | -121.30261 | 13398 ft | 1041 kts | 311° |
| 2026-04-19 20:19 | 36.90118 | -121.36729 | 13506 ft | 1042 kts | 315° |
| 2026-04-19 20:19 | 36.95362 | -121.43024 | 13531 ft | 1044 kts | 315° |
| 2026-04-19 20:20 | 37.00610 | -121.49311 | 13592 ft | 1045 kts | 315° |
| 2026-04-19 20:20 | 37.05876 | -121.55622 | 13687 ft | 1046 kts | 315° |
| 2026-04-19 20:20 | 37.11123 | -121.61924 | 13442 ft | 1013 kts | 315° |
| 2026-04-19 20:20 | 37.15424 | -121.67362 | 12468 ft | 782 kts | 306° |
| 2026-04-19 20:21 | 37.16629 | -121.73090 | 11634 ft | 621 kts | 263° |
| 2026-04-19 20:21 | 37.16254 | -121.78180 | 11387 ft | 558 kts | 259° |
| 2026-04-19 20:21 | 37.15708 | -121.82874 | 11118 ft | 540 kts | 256° |
| 2026-04-19 20:21 | 37.14978 | -121.87484 | 10572 ft | 540 kts | 255° |
| 2026-04-19 20:22 | 37.14926 | -121.92210 | 9208 ft | 561 kts | 288° |
| 2026-04-19 20:22 | 37.18319 | -121.93871 | 7670 ft | 577 kts | 6° |
| 2026-04-19 20:22 | 37.22221 | -121.93858 | 7447 ft | 535 kts | 340° |
| 2026-04-19 20:22 | 37.25451 | -121.95506 | 6785 ft | 475 kts | 332° |
| 2026-04-19 20:23 | 37.28288 | -121.97333 | 5643 ft | 443 kts | 329° |
| 2026-04-19 20:23 | 37.30933 | -121.99051 | 4334 ft | 425 kts | 330° |
| 2026-04-19 20:23 | 37.33541 | -122.00640 | 3199 ft | 409 kts | 335° |
| 2026-04-19 20:23 | 37.36116 | -122.01959 | 2426 ft | 388 kts | 335° |
| 2026-04-19 20:24 | 37.38557 | -122.03154 | 2029 ft | 362 kts | 336° |
| 2026-04-19 20:24 | 37.40827 | -122.04284 | 1957 ft | 340 kts | 335° |
| 2026-04-19 20:24 | 37.42938 | -122.04963 | 1979 ft | 287 kts | 37° |
| 2026-04-19 20:24 | 37.42978 | -122.02994 | 1628 ft | 263 kts | 154° |
| 2026-04-19 20:25 | 37.41133 | -122.02644 | 1732 ft | 291 kts | 169° |
| 2026-04-19 20:25 | 37.39040 | -122.02052 | 1790 ft | 315 kts | 163° |
| 2026-04-19 20:25 | 37.36984 | -122.01208 | 1754 ft | 303 kts | 164° |
| 2026-04-19 20:25 | 37.35948 | -122.02417 | 1002 ft | 208 kts | 298° |
| 2026-04-19 20:26 | 37.37043 | -122.02997 | 645 ft | 179 kts | 1° |
| 2026-04-19 20:26 | 37.38345 | -122.03015 | 633 ft | 191 kts | 334° |
| 2026-04-19 20:26 | 37.39487 | -122.03722 | 466 ft | 174 kts | 338° |
| 2026-04-19 20:26 | 37.40495 | -122.04225 | 158 ft | 133 kts | 337° |
| 2026-04-19 20:27 | 37.41189 | -122.04589 | 32 ft | 85 kts | 337° |
| 2026-04-19 20:27 | 37.41637 | -122.04817 | 20 ft | 45 kts | 338° |
| 2026-04-19 20:27 | 37.41807 | -122.04914 | 15 ft | 20 kts | 322° |
| 2026-04-19 20:27 | 37.41803 | -122.05077 | 13 ft | 21 kts | 248° |
| 2026-04-19 20:28 | 37.41910 | -122.05189 | 14 ft | 35 kts | 338° |
| 2026-04-19 20:28 | 37.42153 | -122.05313 | 13 ft | 34 kts | 338° |
| 2026-04-19 20:28 | 37.42345 | -122.05405 | 5 ft | 22 kts | 8° |
| 2026-04-19 20:28 | 37.42408 | -122.05333 | 5 ft | 8 kts | 66° |
| 2026-04-19 20:29 | 37.42454 | -122.05193 | 7 ft | 27 kts | 67° |
| 2026-04-19 20:29 | 37.42426 | -122.04970 | 9 ft | 29 kts | 154° |
| 2026-04-19 20:29 | 37.42251 | -122.04873 | 9 ft | 18 kts | 159° |
| 2026-04-19 20:30 | 37.42156 | -122.04716 | 9 ft | 15 kts | 158° |
| 2026-04-19 20:30 | 37.42066 | -122.04672 | 10 ft | 7 kts | 169° |
| 2026-04-19 20:30 | 37.42038 | -122.04710 | 10 ft | 0 kts | 246° |
| 2026-04-19 20:30 | 37.42038 | -122.04711 | 10 ft | 0 kts | 246° |